Terminal Aerodrome Forecast
Issued by NWS

Home | Current Version | Previous Version | Text Only | Print | Product List | Glossary On
Versions: 1 2 3 4 5 6 7 8 9 10 11 12 13
593
FTUS46 KPDT 220520
TAFRDM
TAF
KRDM 220520Z 2206/2306 35009KT P6SM SKC
     FM220800 VRB03KT 6SM HZ SKC
     FM222100 35010G18KT P6SM SCT250
     FM230300 35008KT P6SM BKN250=

USA.gov is the U.S. government's official web portal to all federal, state and local government web resources and services.